Time;durP1;ratioP1;P1;durP2;ratioP2;P2;SDS_P1;SDS_P2;PMS_P1;PMS_P2;Temp;Humidity;BMP_temperature;BMP_pressure;BME280_temperature;BME280_humidity;BME280_pressure;Samples;Min_cycle;Max_cycle;Signal;HPM_P1;HPM_P2
2022/09/04 00:00:35;;;;;;;2.95;1.50;;;18.50;66.60;;;;;;5097157;28;20498;-66
2022/09/04 00:03:21;;;;;;;4.20;1.70;;;18.50;66.60;;;;;;5106330;28;20106;-64
2022/09/04 00:05:52;;;;;;;4.22;1.63;;;18.40;66.60;;;;;;5093022;28;20043;-66
2022/09/04 00:08:42;;;;;;;2.60;1.70;;;18.40;66.70;;;;;;5088344;28;20040;-63
2022/09/04 00:11:40;;;;;;;4.45;1.80;;;18.40;66.70;;;;;;5078509;28;20332;-63
2022/09/04 00:14:31;;;;;;;3.60;1.45;;;18.40;66.80;;;;;;5099587;28;20059;-63
2022/09/04 00:17:02;;;;;;;3.45;1.88;;;18.30;66.80;;;;;;5082430;28;20059;-63
2022/09/04 00:19:42;;;;;;;2.13;1.63;;;18.30;66.80;;;;;;5079803;28;20118;-63
2022/09/04 00:22:33;;;;;;;2.78;1.77;;;18.30;67.00;;;;;;5095298;28;20032;-63
2022/09/04 00:25:30;;;;;;;2.75;1.77;;;18.30;66.90;;;;;;5089362;28;20513;-66
2022/09/04 00:28:14;;;;;;;2.95;1.70;;;18.20;66.90;;;;;;5084154;28;20096;-64
2022/09/04 00:30:49;;;;;;;4.90;1.80;;;18.20;66.90;;;;;;5085726;28;20032;-63
2022/09/04 00:33:26;;;;;;;3.22;1.73;;;18.20;67.00;;;;;;5095729;28;20039;-63
2022/09/04 00:35:57;;;;;;;2.45;1.75;;;18.10;67.20;;;;;;5083522;28;20040;-67
2022/09/04 00:38:43;;;;;;;2.42;1.70;;;18.10;67.30;;;;;;5067424;28;20044;-63
2022/09/04 00:41:41;;;;;;;3.17;1.90;;;18.10;67.40;;;;;;5083770;28;20040;-63
2022/09/04 00:44:26;;;;;;;2.72;1.80;;;18.00;67.40;;;;;;5095119;28;20122;-64
2022/09/04 00:47:16;;;;;;;3.60;1.88;;;18.00;67.40;;;;;;5088962;28;20035;-63
2022/09/04 00:50:14;;;;;;;2.90;1.70;;;18.00;67.40;;;;;;5093278;28;20040;-64
2022/09/04 00:52:58;;;;;;;4.53;2.10;;;18.00;67.60;;;;;;5081124;28;20058;-63
2022/09/04 00:55:41;;;;;;;3.63;2.00;;;17.90;67.70;;;;;;5086261;28;20097;-67
2022/09/04 00:58:29;;;;;;;4.80;2.30;;;17.90;67.80;;;;;;5080988;28;20135;-63
2022/09/04 01:00:56;;;;;;;3.50;1.75;;;17.80;67.90;;;;;;5081680;28;20044;-64
2022/09/04 01:04:00;;;;;;;2.65;1.50;;;17.80;68.00;;;;;;5093260;28;20042;-64
2022/09/04 01:06:28;;;;;;;2.53;1.67;;;17.80;68.20;;;;;;5084905;28;20072;-64
2022/09/04 01:09:31;;;;;;;3.83;2.10;;;17.70;68.10;;;;;;5097114;28;20036;-64
2022/09/04 01:12:07;;;;;;;3.25;1.88;;;17.70;68.40;;;;;;5087102;28;20050;-64
2022/09/04 01:14:59;;;;;;;4.07;2.03;;;17.70;68.40;;;;;;5078127;28;20041;-64
2022/09/04 01:17:34;;;;;;;3.70;1.77;;;17.70;68.60;;;;;;5089760;28;20112;-64
2022/09/04 01:20:13;;;;;;;3.03;1.83;;;17.60;68.70;;;;;;5081839;28;20399;-64
2022/09/04 01:23:10;;;;;;;3.53;1.90;;;17.60;68.90;;;;;;5079419;28;20044;-64
2022/09/04 01:26:11;;;;;;;2.75;1.90;;;17.60;69.10;;;;;;5073821;28;20036;-64
2022/09/04 01:28:58;;;;;;;2.22;1.63;;;17.50;69.20;;;;;;5069006;28;20048;-64
2022/09/04 01:31:43;;;;;;;3.53;2.00;;;17.50;69.20;;;;;;5091051;28;20089;-64
2022/09/04 01:34:34;;;;;;;2.50;1.77;;;17.50;69.50;;;;;;5077343;28;20051;-64
2022/09/04 01:37:14;;;;;;;4.63;1.88;;;17.40;69.70;;;;;;5087107;28;20486;-64
2022/09/04 01:39:45;;;;;;;4.85;2.22;;;17.40;69.80;;;;;;5076329;28;20116;-64
2022/09/04 01:42:29;;;;;;;3.20;2.00;;;17.30;70.00;;;;;;5086310;28;20071;-64
2022/09/04 01:44:56;;;;;;;3.85;2.15;;;17.30;70.20;;;;;;5082210;28;20092;-64
2022/09/04 01:47:29;;;;;;;3.88;2.00;;;17.30;70.20;;;;;;5078350;28;20123;-64
2022/09/04 01:50:04;;;;;;;4.60;2.38;;;17.20;70.30;;;;;;5083744;28;20039;-64
2022/09/04 01:52:36;;;;;;;5.22;2.33;;;17.20;70.50;;;;;;5082064;28;20040;-64
2022/09/04 01:55:17;;;;;;;3.40;1.98;;;17.20;70.50;;;;;;5096832;28;20078;-64
2022/09/04 01:58:13;;;;;;;3.90;1.85;;;17.20;70.70;;;;;;5092300;28;20040;-64
2022/09/04 02:01:17;;;;;;;4.60;2.20;;;17.10;70.90;;;;;;5090383;28;20490;-64
2022/09/04 02:04:06;;;;;;;3.03;2.00;;;17.10;71.00;;;;;;5081825;28;20058;-64
2022/09/04 02:07:10;;;;;;;3.55;2.35;;;17.10;70.90;;;;;;5071281;28;20051;-64
2022/09/04 02:10:13;;;;;;;3.00;2.05;;;17.10;71.00;;;;;;5050277;28;20052;-64
2022/09/04 02:12:54;;;;;;;2.80;1.88;;;17.00;71.30;;;;;;5087195;28;20064;-64
2022/09/04 02:15:50;;;;;;;4.07;1.85;;;17.00;71.50;;;;;;5076180;28;20132;-64
2022/09/04 02:18:36;;;;;;;4.85;2.00;;;16.90;71.70;;;;;;5105533;28;20051;-64
2022/09/04 02:21:11;;;;;;;4.07;2.10;;;17.00;71.80;;;;;;5080735;28;20495;-64
2022/09/04 02:23:51;;;;;;;2.45;1.88;;;16.90;71.90;;;;;;5081232;28;20131;-64
2022/09/04 02:26:24;;;;;;;4.45;2.20;;;16.90;72.10;;;;;;5079561;28;20045;-64
2022/09/04 02:29:00;;;;;;;4.90;2.10;;;16.90;72.10;;;;;;5090780;28;20042;-64
2022/09/04 02:31:43;;;;;;;1.98;1.65;;;16.90;72.20;;;;;;5082772;28;20028;-64
2022/09/04 02:34:22;;;;;;;3.78;2.10;;;16.90;72.30;;;;;;5085080;28;20041;-64
2022/09/04 02:37:26;;;;;;;3.35;2.00;;;16.80;72.40;;;;;;5082924;28;20048;-64
2022/09/04 02:40:00;;;;;;;5.13;1.83;;;16.80;72.50;;;;;;5079250;28;20432;-65
2022/09/04 02:42:49;;;;;;;3.72;2.20;;;16.80;72.50;;;;;;5095642;28;20051;-64
2022/09/04 02:45:52;;;;;;;6.63;2.10;;;16.80;72.70;;;;;;5091624;28;20051;-64
2022/09/04 02:48:33;;;;;;;3.38;2.10;;;16.80;72.80;;;;;;5088333;28;20055;-64
2022/09/04 02:51:17;;;;;;;2.80;1.83;;;16.80;72.70;;;;;;5085335;28;20040;-65
2022/09/04 02:54:01;;;;;;;4.90;1.90;;;16.70;72.90;;;;;;5081000;28;20076;-64
2022/09/04 02:56:42;;;;;;;3.75;2.42;;;16.70;73.00;;;;;;5087925;28;20055;-64
2022/09/04 02:59:23;;;;;;;4.47;2.05;;;16.70;73.20;;;;;;5082857;28;20111;-64
2022/09/04 03:02:12;;;;;;;4.72;2.10;;;16.60;73.10;;;;;;5091210;28;20039;-64
2022/09/04 03:05:06;;;;;;;7.15;2.40;;;16.70;73.40;;;;;;5097448;28;20050;-63
2022/09/04 03:07:44;;;;;;;4.43;2.42;;;16.60;73.50;;;;;;5089490;28;20040;-66
2022/09/04 03:10:19;;;;;;;3.97;2.10;;;16.60;73.50;;;;;;5089346;28;20106;-64
2022/09/04 03:12:54;;;;;;;2.55;1.83;;;16.60;73.80;;;;;;5080507;28;20066;-65
2022/09/04 03:15:49;;;;;;;3.25;2.00;;;16.60;74.00;;;;;;5087621;28;20067;-64
2022/09/04 03:18:50;;;;;;;4.63;2.10;;;16.50;74.30;;;;;;5087259;28;20390;-65
2022/09/04 03:21:39;;;;;;;10.07;2.65;;;16.50;74.40;;;;;;5091099;28;20157;-62
2022/09/04 03:24:21;;;;;;;3.78;2.00;;;16.50;74.40;;;;;;5082312;28;20055;-63
2022/09/04 03:26:53;;;;;;;4.03;2.08;;;16.50;74.60;;;;;;5094607;28;20048;-65
2022/09/04 03:29:36;;;;;;;3.20;2.03;;;16.50;74.80;;;;;;5096935;28;20525;-65
2022/09/04 03:32:08;;;;;;;;;;;16.50;74.90;;;;;;5104154;27;20112;-65
2022/09/04 03:34:39;;;;;;;3.95;2.30;;;16.40;75.10;;;;;;5090545;28;19990;-65
2022/09/04 03:37:20;;;;;;;5.13;2.47;;;16.40;75.00;;;;;;5098184;28;20040;-64
2022/09/04 03:39:54;;;;;;;4.43;2.30;;;16.40;75.40;;;;;;5083431;28;20043;-65
2022/09/04 03:42:46;;;;;;;4.13;2.15;;;16.30;75.40;;;;;;5092829;28;20044;-65
2022/09/04 03:45:22;;;;;;;4.60;2.40;;;16.30;75.60;;;;;;5077157;28;20073;-65
2022/09/04 03:48:05;;;;;;;6.80;2.22;;;16.30;75.90;;;;;;5089718;28;20059;-65
2022/09/04 03:50:55;;;;;;;6.32;2.33;;;16.30;76.20;;;;;;5094857;28;20126;-64
2022/09/04 03:53:36;;;;;;;7.25;2.60;;;16.30;76.30;;;;;;5093406;28;20470;-65
2022/09/04 03:56:11;;;;;;;3.97;2.38;;;16.30;76.50;;;;;;5095318;28;20039;-65
2022/09/04 03:59:03;;;;;;;5.07;2.30;;;16.20;76.70;;;;;;5099097;28;20055;-65
2022/09/04 04:01:45;;;;;;;4.60;2.25;;;16.20;77.00;;;;;;5092661;28;20041;-65
2022/09/04 04:04:35;;;;;;;6.18;2.83;;;16.20;77.20;;;;;;5095663;28;20063;-64
2022/09/04 04:07:09;;;;;;;4.38;2.25;;;16.20;77.40;;;;;;5092902;28;20044;-65
2022/09/04 04:09:46;;;;;;;4.45;2.38;;;16.10;77.60;;;;;;5088025;28;20518;-63
2022/09/04 04:12:38;;;;;;;3.03;2.08;;;16.10;77.90;;;;;;5089593;28;20498;-65
2022/09/04 04:15:03;;;;;;;6.53;2.95;;;16.10;78.20;;;;;;5092484;28;20459;-63
2022/09/04 04:17:52;;;;;;;3.15;2.45;;;16.10;78.30;;;;;;5088645;28;20146;-65
2022/09/04 04:20:43;;;;;;;4.00;2.50;;;16.00;78.80;;;;;;5086246;28;20044;-64
2022/09/04 04:23:16;;;;;;;4.35;2.50;;;16.00;78.80;;;;;;5085814;28;20048;-65
2022/09/04 04:26:03;;;;;;;4.03;2.30;;;16.00;79.00;;;;;;5090033;28;20110;-64
2022/09/04 04:28:58;;;;;;;4.45;2.33;;;16.00;79.20;;;;;;5094156;28;20107;-66
2022/09/04 04:32:12;;;;;;;3.88;2.35;;;16.00;79.20;;;;;;5096012;28;20042;-65
2022/09/04 04:34:52;;;;;;;6.20;2.13;;;16.00;79.20;;;;;;5093084;28;20051;-62
2022/09/04 04:37:24;;;;;;;5.00;2.30;;;16.00;79.10;;;;;;5086853;28;20079;-64
2022/09/04 04:40:03;;;;;;;3.10;1.92;;;16.00;79.10;;;;;;5072313;28;20042;-63
2022/09/04 04:42:53;;;;;;;3.85;2.40;;;16.00;79.20;;;;;;5093854;28;20097;-65
2022/09/04 04:45:49;;;;;;;5.35;2.40;;;16.00;79.30;;;;;;5082790;28;20048;-65
2022/09/04 04:48:46;;;;;;;3.30;2.20;;;16.00;79.20;;;;;;5080677;28;20051;-65
2022/09/04 04:51:49;;;;;;;3.70;2.22;;;16.00;79.30;;;;;;5091036;28;20036;-65
2022/09/04 04:54:43;;;;;;;3.72;2.72;;;16.00;79.50;;;;;;5098246;27;20050;-65
2022/09/04 04:57:20;;;;;;;2.85;2.10;;;15.90;79.50;;;;;;5092239;28;20036;-64
2022/09/04 05:00:02;;;;;;;5.00;2.47;;;16.00;79.80;;;;;;5080651;28;20043;-66
2022/09/04 05:02:41;;;;;;;4.40;2.60;;;15.90;79.80;;;;;;5091509;28;20043;-65
2022/09/04 05:05:22;;;;;;;4.90;2.40;;;15.90;79.90;;;;;;5084246;28;20062;-65
2022/09/04 05:07:59;;;;;;;3.63;2.38;;;15.90;80.10;;;;;;5100438;28;20048;-65
2022/09/04 05:10:49;;;;;;;4.72;2.70;;;15.90;80.20;;;;;;5085642;28;20032;-66
2022/09/04 05:13:30;;;;;;;4.75;2.35;;;15.90;80.60;;;;;;5095066;28;20418;-65
2022/09/04 05:16:10;;;;;;;5.57;2.40;;;15.90;80.70;;;;;;5080350;28;20062;-65
2022/09/04 05:18:42;;;;;;;5.30;2.60;;;15.90;80.70;;;;;;5100765;28;20035;-65
2022/09/04 05:21:27;;;;;;;3.90;2.70;;;15.90;80.70;;;;;;5073615;28;20033;-65
2022/09/04 05:24:07;;;;;;;3.63;2.38;;;15.90;81.10;;;;;;5085846;28;20501;-65
2022/09/04 05:26:59;;;;;;;3.83;2.67;;;15.90;81.10;;;;;;5100025;28;20063;-66
2022/09/04 05:29:34;;;;;;;8.87;3.13;;;15.90;81.20;;;;;;5091024;28;20047;-65
2022/09/04 05:32:20;;;;;;;3.63;2.55;;;15.90;81.30;;;;;;5088032;28;20128;-64
2022/09/04 05:35:07;;;;;;;5.68;2.60;;;16.00;82.20;;;;;;5098807;28;20049;-66
2022/09/04 05:37:46;;;;;;;6.32;2.45;;;16.00;81.80;;;;;;5076196;28;20060;-65
2022/09/04 05:40:34;;;;;;;3.75;2.42;;;16.00;81.60;;;;;;5083192;28;20094;-65
2022/09/04 05:43:43;;;;;;;3.15;2.17;;;16.00;81.90;;;;;;5083835;28;20039;-65
2022/09/04 05:46:15;;;;;;;3.92;2.30;;;16.00;82.00;;;;;;5083774;28;20032;-65
2022/09/04 05:48:56;;;;;;;;;;;16.00;82.00;;;;;;5088114;28;20083;-65
2022/09/04 05:51:31;;;;;;;3.35;2.42;;;16.10;82.10;;;;;;5081387;28;19917;-63
2022/09/04 05:54:02;;;;;;;4.20;2.40;;;16.10;82.00;;;;;;5083344;27;20053;-65
2022/09/04 05:56:49;;;;;;;5.35;2.58;;;16.10;81.70;;;;;;5074007;28;20067;-65
2022/09/04 05:59:42;;;;;;;5.25;2.75;;;16.10;82.20;;;;;;5084369;28;20101;-66
2022/09/04 06:02:25;;;;;;;;;;;16.10;82.50;;;;;;5073900;28;20488;-65
2022/09/04 06:04:57;;;;;;;4.93;3.05;;;16.10;82.60;;;;;;5084319;28;19923;-65
2022/09/04 06:07:30;;;;;;;4.78;2.42;;;16.10;82.40;;;;;;5065878;28;20479;-65
2022/09/04 06:10:12;;;;;;;5.85;2.63;;;16.10;82.70;;;;;;5069439;28;20028;-65
2022/09/04 06:13:10;;;;;;;6.43;2.85;;;16.10;82.80;;;;;;5095161;28;20067;-66
2022/09/04 06:15:55;;;;;;;4.70;2.50;;;16.10;83.10;;;;;;5085042;28;20051;-65
2022/09/04 06:18:27;;;;;;;4.93;2.85;;;16.10;83.00;;;;;;5076136;28;20068;-62
2022/09/04 06:21:23;;;;;;;7.38;2.80;;;16.10;83.30;;;;;;5075136;28;20040;-65
2022/09/04 06:24:03;;;;;;;9.30;3.05;;;16.10;83.30;;;;;;5079035;28;20094;-65
2022/09/04 06:26:38;;;;;;;4.43;2.55;;;16.10;83.40;;;;;;5080696;28;20050;-63
2022/09/04 06:29:43;;;;;;;4.80;2.90;;;16.10;83.70;;;;;;5078017;28;20104;-65
2022/09/04 06:32:35;;;;;;;4.13;2.72;;;16.20;84.00;;;;;;5074159;28;20042;-65
2022/09/04 06:35:18;;;;;;;5.05;2.70;;;16.20;84.10;;;;;;5086497;28;20067;-65
2022/09/04 06:38:03;;;;;;;5.20;2.90;;;16.20;84.20;;;;;;5101202;28;20089;-65
2022/09/04 06:41:07;;;;;;;5.82;2.63;;;16.20;84.70;;;;;;5104488;28;20490;-65
2022/09/04 06:43:52;;;;;;;5.13;2.63;;;16.20;85.00;;;;;;5096407;28;20375;-65
2022/09/04 06:46:40;;;;;;;6.72;3.30;;;16.20;85.20;;;;;;5089010;28;20047;-64
2022/09/04 06:49:17;;;;;;;6.22;2.60;;;16.30;85.80;;;;;;5086673;28;20075;-65
2022/09/04 06:51:51;;;;;;;7.05;2.75;;;16.30;85.50;;;;;;5108338;28;20046;-63
2022/09/04 06:54:42;;;;;;;4.57;2.80;;;16.30;85.60;;;;;;5095600;27;20521;-65
2022/09/04 06:57:13;;;;;;;5.20;3.00;;;16.30;86.00;;;;;;5102275;28;20077;-63
2022/09/04 06:59:41;;;;;;;3.57;2.70;;;16.40;86.10;;;;;;5094016;28;20433;-65
2022/09/04 07:02:20;;;;;;;4.03;2.67;;;16.40;86.40;;;;;;5090540;28;20035;-65
2022/09/04 07:05:20;;;;;;;3.42;2.47;;;16.40;86.80;;;;;;5086748;28;20036;-64
2022/09/04 07:08:20;;;;;;;5.25;2.80;;;16.50;87.20;;;;;;5092036;28;20055;-66
2022/09/04 07:10:58;;;;;;;3.97;3.03;;;16.50;87.40;;;;;;5088682;28;20048;-65
2022/09/04 07:13:32;;;;;;;5.35;2.90;;;16.50;88.00;;;;;;5089470;28;20040;-65
2022/09/04 07:16:08;;;;;;;5.15;2.90;;;16.60;88.00;;;;;;5080010;28;20039;-65
2022/09/04 07:18:54;;;;;;;9.13;3.00;;;16.60;88.10;;;;;;5096284;28;20036;-67
2022/09/04 07:21:42;;;;;;;5.03;3.00;;;16.70;88.80;;;;;;5096331;28;20039;-65
2022/09/04 07:24:38;;;;;;;8.50;3.45;;;16.70;88.90;;;;;;5094952;28;20399;-64
2022/09/04 07:27:30;;;;;;;7.88;2.80;;;16.80;89.50;;;;;;5105283;28;20185;-63
2022/09/04 07:30:24;;;;;;;7.95;3.40;;;16.80;89.00;;;;;;5081894;28;20483;-63
2022/09/04 07:33:27;;;;;;;4.85;3.05;;;16.90;89.90;;;;;;5094026;28;20583;-62
2022/09/04 07:36:00;;;;;;;5.68;3.03;;;16.90;89.50;;;;;;5088427;28;20046;-64
2022/09/04 07:38:53;;;;;;;6.40;3.40;;;17.00;89.20;;;;;;5095998;28;20039;-64
2022/09/04 07:41:37;;;;;;;5.57;3.03;;;17.00;89.20;;;;;;5088387;28;20285;-63
2022/09/04 07:44:05;;;;;;;6.53;3.30;;;17.10;89.20;;;;;;5080055;28;20628;-63
2022/09/04 07:46:45;;;;;;;5.55;3.00;;;17.20;89.50;;;;;;5091251;28;20059;-66
2022/09/04 07:49:32;;;;;;;6.78;3.38;;;17.20;89.90;;;;;;5091774;28;20024;-66
2022/09/04 07:52:08;;;;;;;4.22;2.90;;;17.30;90.20;;;;;;5086595;28;20032;-63
2022/09/04 07:54:42;;;;;;;7.70;3.42;;;17.40;90.10;;;;;;5100656;28;20054;-64
2022/09/04 07:57:36;;;;;;;5.65;3.25;;;17.40;90.40;;;;;;5098576;28;20123;-64
2022/09/04 08:00:12;;;;;;;4.55;3.20;;;17.50;90.90;;;;;;5082298;28;20078;-64
2022/09/04 08:02:38;;;;;;;4.45;3.10;;;17.50;91.00;;;;;;5077105;28;20089;-64
2022/09/04 08:05:09;;;;;;;8.10;3.55;;;17.60;91.20;;;;;;5098695;28;20039;-66
2022/09/04 08:07:38;;;;;;;4.22;3.28;;;17.60;91.60;;;;;;5095574;28;20533;-63
2022/09/04 08:10:43;;;;;;;5.20;3.55;;;17.70;91.50;;;;;;5089765;28;20093;-66
2022/09/04 08:13:40;;;;;;;8.35;3.53;;;17.80;91.90;;;;;;5069939;28;20100;-64
2022/09/04 08:16:13;;;;;;;6.55;3.33;;;17.90;91.80;;;;;;5089542;28;20489;-64
2022/09/04 08:18:51;;;;;;;4.70;3.17;;;18.00;91.90;;;;;;5100019;28;20111;-63
2022/09/04 08:21:32;;;;;;;5.85;3.30;;;18.10;92.20;;;;;;5100583;28;20429;-63
2022/09/04 08:24:14;;;;;;;5.57;3.22;;;18.20;92.20;;;;;;5078185;28;20040;-63
2022/09/04 08:26:50;;;;;;;;;;;18.20;92.00;;;;;;5089159;28;20043;-65
2022/09/04 08:29:49;;;;;;;4.45;3.20;;;18.30;92.60;;;;;;5097287;28;19955;-66
2022/09/04 08:32:52;;;;;;;5.05;3.63;;;18.40;92.50;;;;;;5086364;28;20055;-63
2022/09/04 08:35:17;;;;;;;;;;;18.50;92.50;;;;;;5096000;28;20044;-64
2022/09/04 08:38:22;;;;;;;5.25;3.47;;;18.60;93.00;;;;;;5092633;28;19920;-65
2022/09/04 08:41:09;;;;;;;5.30;3.40;;;18.70;92.90;;;;;;5093989;28;20452;-64
2022/09/04 08:43:56;;;;;;;4.82;3.00;;;18.80;92.90;;;;;;5092927;28;20043;-65
2022/09/04 08:46:51;;;;;;;6.32;3.83;;;18.90;92.90;;;;;;5081885;28;20494;-64
2022/09/04 08:49:34;;;;;;;6.25;2.97;;;18.90;92.90;;;;;;5100734;28;20092;-64
2022/09/04 08:52:19;;;;;;;5.57;3.47;;;19.00;92.90;;;;;;5085311;28;20028;-64
2022/09/04 08:55:04;;;;;;;5.47;3.60;;;19.10;93.40;;;;;;5109479;28;20069;-66
2022/09/04 08:57:49;;;;;;;5.65;3.28;;;19.30;93.00;;;;;;5091736;28;20040;-64
2022/09/04 09:00:31;;;;;;;5.30;3.65;;;19.40;93.00;;;;;;5093459;28;20528;-64
2022/09/04 09:03:34;;;;;;;5.10;3.45;;;19.60;93.20;;;;;;5086893;28;20036;-65
2022/09/04 09:06:18;;;;;;;9.55;3.63;;;19.90;93.10;;;;;;5094074;28;20062;-64
2022/09/04 09:09:26;;;;;;;4.18;3.25;;;20.20;93.20;;;;;;5090274;28;20051;-65
2022/09/04 09:12:07;;;;;;;8.02;3.22;;;20.50;93.00;;;;;;5082932;28;20040;-64
2022/09/04 09:15:12;;;;;;;6.18;3.40;;;20.80;92.30;;;;;;5082677;28;20044;-68
2022/09/04 09:17:42;;;;;;;3.85;2.97;;;21.00;91.70;;;;;;5090683;28;20594;-64
2022/09/04 09:20:40;;;;;;;6.68;3.65;;;21.30;91.40;;;;;;5096026;28;20036;-64
2022/09/04 09:23:18;;;;;;;5.40;3.10;;;21.50;90.60;;;;;;5084198;28;20039;-64
2022/09/04 09:25:56;;;;;;;5.40;2.92;;;21.70;90.50;;;;;;5078257;28;20076;-65
2022/09/04 09:28:46;;;;;;;5.28;3.40;;;22.00;90.40;;;;;;5084969;28;20124;-64
2022/09/04 09:31:41;;;;;;;4.07;3.10;;;22.20;89.50;;;;;;5097787;28;20032;-67
2022/09/04 09:34:56;;;;;;;4.22;2.65;;;22.40;88.40;;;;;;5098049;28;20055;-64
2022/09/04 09:37:52;;;;;;;4.47;3.15;;;22.70;87.50;;;;;;5046232;28;20043;-68
2022/09/04 09:40:43;;;;;;;3.65;2.83;;;22.90;87.10;;;;;;5091569;28;20039;-66
2022/09/04 09:43:18;;;;;;;3.28;2.60;;;23.10;86.60;;;;;;5103159;28;20405;-65
2022/09/04 09:46:06;;;;;;;5.68;2.63;;;23.30;86.30;;;;;;5088803;28;20048;-64
2022/09/04 09:48:49;;;;;;;4.72;2.92;;;23.40;84.40;;;;;;5094321;28;20418;-63
2022/09/04 09:51:23;;;;;;;3.80;2.78;;;23.60;83.90;;;;;;5088808;28;20047;-64
2022/09/04 09:54:20;;;;;;;5.10;3.05;;;23.70;83.90;;;;;;5088491;28;20401;-64
2022/09/04 09:57:17;;;;;;;4.07;2.70;;;23.90;80.80;;;;;;5101629;28;20519;-64
2022/09/04 09:59:52;;;;;;;3.60;2.90;;;24.00;82.40;;;;;;5107976;28;20047;-64
2022/09/04 10:02:42;;;;;;;3.90;2.58;;;24.20;81.80;;;;;;5084141;28;20560;-64
2022/09/04 10:05:30;;;;;;;5.57;2.72;;;24.30;78.90;;;;;;5086557;28;20401;-64
2022/09/04 10:08:34;;;;;;;5.00;2.60;;;24.40;79.70;;;;;;5080169;28;20036;-64
2022/09/04 10:11:31;;;;;;;3.63;2.60;;;24.40;78.30;;;;;;5085289;28;20039;-64
2022/09/04 10:14:31;;;;;;;4.68;2.88;;;24.40;77.70;;;;;;5085770;28;20495;-64
2022/09/04 10:17:07;;;;;;;3.70;2.60;;;24.50;77.70;;;;;;5070761;28;20032;-64
2022/09/04 10:19:52;;;;;;;4.55;2.78;;;24.60;78.80;;;;;;5101219;28;20371;-67
2022/09/04 10:22:48;;;;;;;4.53;2.65;;;24.70;77.40;;;;;;5092244;28;20052;-64
2022/09/04 10:25:22;;;;;;;3.20;2.45;;;24.80;78.30;;;;;;5102644;28;20039;-64
2022/09/04 10:28:25;;;;;;;4.13;2.50;;;25.00;78.80;;;;;;5076070;28;20316;-64
2022/09/04 10:31:09;;;;;;;4.05;2.53;;;25.10;77.40;;;;;;5082617;28;20051;-68
2022/09/04 10:33:59;;;;;;;4.50;2.30;;;25.30;77.30;;;;;;5093874;28;20375;-64
2022/09/04 10:37:19;;;;;;;4.85;2.80;;;25.30;76.50;;;;;;5077160;28;20040;-64
2022/09/04 10:40:34;;;;;;;4.32;2.45;;;25.40;75.90;;;;;;5023993;28;20049;-65
2022/09/04 10:43:18;;;;;;;4.97;2.60;;;25.40;75.50;;;;;;5091969;28;20043;-66
2022/09/04 10:46:04;;;;;;;2.97;2.20;;;25.50;76.50;;;;;;5095125;28;20139;-65
2022/09/04 10:49:05;;;;;;;5.25;2.55;;;25.60;75.60;;;;;;5091165;28;20459;-65
2022/09/04 10:51:46;;;;;;;10.60;2.65;;;25.70;75.40;;;;;;5071513;28;20036;-64
2022/09/04 10:54:43;;;;;;;4.63;2.20;;;25.60;74.60;;;;;;5071463;28;20044;-65
2022/09/04 10:57:12;;;;;;;2.55;2.15;;;25.70;74.80;;;;;;5079931;28;20047;-64
2022/09/04 11:00:05;;;;;;;3.75;2.50;;;25.80;74.80;;;;;;5084709;28;20551;-66
2022/09/04 11:03:10;;;;;;;4.45;2.70;;;25.90;74.20;;;;;;5081043;28;20101;-65
2022/09/04 11:05:43;;;;;;;3.45;2.50;;;26.00;72.90;;;;;;5089786;28;20043;-65
2022/09/04 11:08:37;;;;;;;4.28;2.50;;;26.10;74.00;;;;;;5086267;28;20055;-65
2022/09/04 11:11:31;;;;;;;3.00;2.50;;;26.20;72.70;;;;;;5104541;27;20055;-64
2022/09/04 11:14:22;;;;;;;4.68;2.47;;;26.30;72.50;;;;;;5102449;27;20055;-67
2022/09/04 11:16:59;;;;;;;7.43;2.65;;;26.30;72.10;;;;;;5091467;28;20050;-65
2022/09/04 11:19:47;;;;;;;6.65;2.75;;;26.40;72.00;;;;;;5085818;28;20032;-64
2022/09/04 11:22:50;;;;;;;2.85;2.28;;;26.50;72.40;;;;;;5079395;28;21426;-66
2022/09/04 11:25:37;;;;;;;3.70;2.28;;;26.60;71.20;;;;;;5077812;28;20040;-64
2022/09/04 11:28:30;;;;;;;4.55;2.45;;;26.70;71.60;;;;;;5098759;27;20110;-65
2022/09/04 11:31:10;;;;;;;8.00;2.50;;;26.80;70.00;;;;;;5088317;28;20055;-65
2022/09/04 11:33:39;;;;;;;4.87;2.70;;;26.80;69.90;;;;;;5087868;28;20487;-68
2022/09/04 11:36:17;;;;;;;3.17;2.25;;;26.60;70.00;;;;;;5072665;28;20043;-67
2022/09/04 11:38:57;;;;;;;3.40;2.60;;;26.60;70.30;;;;;;5090391;28;20036;-69
2022/09/04 11:41:45;;;;;;;4.28;2.20;;;26.70;70.80;;;;;;5089767;28;20399;-67
2022/09/04 11:44:27;;;;;;;4.70;2.58;;;26.80;69.20;;;;;;5080045;28;20046;-64
2022/09/04 11:47:29;;;;;;;5.60;2.35;;;26.70;69.60;;;;;;5083512;28;20036;-65
2022/09/04 11:50:03;;;;;;;3.67;2.30;;;26.80;68.80;;;;;;5067235;28;20489;-64
2022/09/04 11:53:07;;;;;;;3.00;2.30;;;26.60;69.10;;;;;;5072865;28;20051;-68
2022/09/04 11:56:18;;;;;;;2.80;2.53;;;26.80;69.00;;;;;;5068574;28;20119;-64
2022/09/04 11:59:08;;;;;;;6.05;2.13;;;26.80;67.80;;;;;;5010515;28;20041;-68
2022/09/04 12:01:45;;;;;;;2.92;2.20;;;26.80;69.00;;;;;;5020854;28;20041;-64
2022/09/04 12:04:23;;;;;;;3.92;2.30;;;26.90;69.30;;;;;;5059347;28;20060;-64
2022/09/04 12:07:18;;;;;;;4.45;2.20;;;27.00;69.10;;;;;;5074154;28;20097;-64
2022/09/04 12:09:59;;;;;;;3.20;2.05;;;27.10;68.80;;;;;;5077274;28;20405;-69
2022/09/04 12:13:03;;;;;;;3.70;2.05;;;27.10;68.30;;;;;;5089740;28;20082;-64
2022/09/04 12:16:08;;;;;;;2.95;2.25;;;27.30;67.60;;;;;;5090843;28;20146;-65
2022/09/04 12:18:50;;;;;;;3.33;2.10;;;27.30;67.50;;;;;;5084165;28;20055;-64
2022/09/04 12:21:34;;;;;;;3.97;2.33;;;27.50;67.90;;;;;;5074817;28;20033;-65
2022/09/04 12:24:18;;;;;;;2.25;2.03;;;27.60;67.50;;;;;;5070665;28;20075;-64
2022/09/04 12:27:19;;;;;;;3.33;2.40;;;27.60;67.30;;;;;;5075216;28;20501;-64
2022/09/04 12:29:59;;;;;;;2.58;2.10;;;27.60;66.00;;;;;;5009227;28;20068;-67
2022/09/04 12:32:59;;;;;;;6.30;2.38;;;27.50;67.10;;;;;;5076790;28;20101;-64
2022/09/04 12:35:28;;;;;;;2.20;1.85;;;27.50;67.10;;;;;;5073566;28;20080;-68
2022/09/04 12:38:26;;;;;;;2.55;2.05;;;27.50;67.30;;;;;;5074926;28;20043;-64
2022/09/04 12:41:15;;;;;;;2.42;2.22;;;27.60;66.80;;;;;;5071734;28;20123;-64
2022/09/04 12:43:51;;;;;;;3.03;2.20;;;27.80;66.50;;;;;;5071222;28;20298;-64
2022/09/04 12:46:49;;;;;;;2.90;2.15;;;27.70;66.40;;;;;;5073557;28;20040;-64
2022/09/04 12:49:33;;;;;;;3.58;2.50;;;27.60;66.00;;;;;;5072886;28;20039;-64
2022/09/04 12:52:02;;;;;;;2.45;2.25;;;27.50;65.90;;;;;;5075553;28;20542;-64
2022/09/04 12:54:33;;;;;;;4.45;2.40;;;27.50;66.30;;;;;;5069513;28;20040;-68
2022/09/04 12:57:26;;;;;;;3.08;2.50;;;27.60;65.70;;;;;;5070966;28;20036;-64
2022/09/04 13:00:12;;;;;;;3.45;2.50;;;27.60;65.80;;;;;;5072680;28;20487;-65
2022/09/04 13:03:16;;;;;;;3.92;2.47;;;27.80;66.00;;;;;;5070970;28;20066;-64
2022/09/04 13:06:03;;;;;;;2.78;2.20;;;27.80;65.60;;;;;;5081052;28;20490;-64
2022/09/04 13:09:00;;;;;;;3.05;2.28;;;27.90;65.50;;;;;;5073556;28;20055;-66
2022/09/04 13:11:38;;;;;;;4.15;2.65;;;27.90;65.00;;;;;;5076592;28;20028;-66
2022/09/04 13:14:28;;;;;;;2.97;2.40;;;27.80;64.10;;;;;;5073851;28;20384;-66
2022/09/04 13:17:27;;;;;;;3.20;2.50;;;27.70;64.40;;;;;;5075691;28;20067;-66
2022/09/04 13:19:59;;;;;;;2.70;2.38;;;27.70;64.60;;;;;;5076642;28;20063;-66
2022/09/04 13:23:19;;;;;;;3.75;2.40;;;27.70;64.90;;;;;;5078252;28;20047;-66
2022/09/04 13:25:56;;;;;;;3.58;2.38;;;27.70;65.00;;;;;;5028109;28;20037;-67
2022/09/04 13:28:34;;;;;;;5.03;2.50;;;27.60;64.30;;;;;;5073629;28;20048;-66
2022/09/04 13:31:18;;;;;;;3.15;2.63;;;27.60;64.30;;;;;;5081336;28;20509;-66
2022/09/04 13:34:05;;;;;;;3.85;2.78;;;27.50;64.40;;;;;;5097807;28;20036;-66
2022/09/04 13:36:37;;;;;;;3.53;2.15;;;27.60;65.30;;;;;;5085213;28;20024;-63
2022/09/04 13:39:31;;;;;;;3.00;2.30;;;27.70;65.10;;;;;;5089144;28;20040;-66
2022/09/04 13:42:28;;;;;;;3.65;2.30;;;27.80;65.00;;;;;;5078732;28;20039;-66
2022/09/04 13:45:22;;;;;;;4.13;2.47;;;27.90;65.10;;;;;;5078251;28;20112;-67
2022/09/04 13:47:48;;;;;;;4.90;2.38;;;28.00;64.70;;;;;;5074696;28;20040;-67
2022/09/04 13:50:26;;;;;;;3.33;2.40;;;28.10;64.70;;;;;;5074999;28;20071;-66
2022/09/04 13:52:58;;;;;;;3.05;2.40;;;28.10;64.60;;;;;;5075842;28;20059;-67
2022/09/04 13:55:27;;;;;;;3.70;2.20;;;28.10;64.50;;;;;;5074796;28;20044;-66
2022/09/04 13:57:56;;;;;;;2.45;2.25;;;28.00;64.20;;;;;;5086735;28;20032;-66
2022/09/04 14:00:25;;;;;;;3.80;2.35;;;28.00;63.80;;;;;;5078735;28;20055;-67
2022/09/04 14:02:57;;;;;;;4.13;2.45;;;28.00;63.50;;;;;;5080021;28;20505;-67
2022/09/04 14:05:25;;;;;;;2.83;2.53;;;28.00;63.50;;;;;;5075573;28;20403;-67
2022/09/04 14:08:01;;;;;;;3.28;2.60;;;28.10;63.50;;;;;;5072897;28;20039;-66
2022/09/04 14:10:47;;;;;;;3.78;2.60;;;28.10;64.30;;;;;;5072382;28;20044;-64
2022/09/04 14:13:31;;;;;;;3.20;2.55;;;28.00;63.40;;;;;;5086382;28;20040;-66
2022/09/04 14:16:26;;;;;;;4.65;2.67;;;28.00;63.50;;;;;;5071635;28;20041;-67
2022/09/04 14:19:16;;;;;;;3.22;2.40;;;27.80;63.40;;;;;;5069221;28;20449;-66
2022/09/04 14:22:02;;;;;;;3.53;2.70;;;27.80;63.80;;;;;;5085850;28;20040;-66